Portola Valley, California
Current Conditions -  °F | °C
As of 7:47 AM on Wednesday 22 Oct 2014 (Local Time) from KPAO Reporting Station
Scattered Clouds Scattered Clouds  
Wind Chill: 50°   Ceiling: Unl
Heat Index: 50°   Visibility: 10mi
Dew Point: 48°   Wind: 0mph
Humidity: 94%   Direction: NA
Pressure: 30.05"   Gusts: NA
Location:  37.38°N, 122.24°W
Report Text: KPAO 221447Z 00000KT 10SM SCT200 10/09 A3005
Loading
Personal Weather Stations






























Interactive Weather Map New forecast layout! Learn more

10-Day Weather Forecast

Advertisements
Track Severe Weather on mobile